Time;durP1;ratioP1;P1;durP2;ratioP2;P2;SDS_P1;SDS_P2;PMS_P1;PMS_P2;Temp;Humidity;BMP_temperature;BMP_pressure;BME280_temperature;BME280_humidity;BME280_pressure;Samples;Min_cycle;Max_cycle;Signal;HPM_P1;HPM_P2
2022/01/31 00:00:57;;;;;;;;;;;-0.30;99.90;;;;;;5012675;28;19979;-86
2022/01/31 00:03:22;;;;;;;;;;;-0.30;99.90;;;;;;5019943;28;19920;-85
2022/01/31 00:05:48;;;;;;;;;;;-0.20;99.90;;;;;;4990956;28;19917;-85
2022/01/31 00:08:22;;;;;;;;;;;-0.20;99.90;;;;;;5004412;28;20365;-85
2022/01/31 00:10:48;;;;;;;;;;;-0.20;99.90;;;;;;5013989;28;20000;-86
2022/01/31 00:13:19;;;;;;;;;;;-0.10;99.90;;;;;;5019396;28;19983;-87
2022/01/31 00:15:52;;;;;;;;;;;-0.10;99.90;;;;;;5033810;28;19913;-87
2022/01/31 00:18:18;;;;;;;;;;;-0.10;99.90;;;;;;5026400;28;19913;-86
2022/01/31 00:20:43;;;;;;;;;;;-0.20;99.90;;;;;;5015550;28;20430;-87
2022/01/31 00:23:09;;;;;;;;;;;-0.10;99.90;;;;;;5032862;28;19913;-87
2022/01/31 00:25:34;;;;;;;;;;;-0.10;99.90;;;;;;5032700;28;19920;-85
2022/01/31 00:28:00;;;;;;;;;;;-0.10;99.90;;;;;;5000914;28;19945;-87
2022/01/31 00:30:25;;;;;;;;;;;-0.10;99.90;;;;;;4973610;28;19968;-85
2022/01/31 00:32:51;;;;;;;;;;;-0.10;99.90;;;;;;4991784;28;19918;-87
2022/01/31 00:35:17;;;;;;;;;;;-0.10;99.90;;;;;;5029232;28;19965;-86
2022/01/31 00:37:42;;;;;;;;;;;-0.10;99.90;;;;;;5020018;28;19913;-87
2022/01/31 00:40:08;;;;;;;;;;;-0.10;99.90;;;;;;5024022;28;19917;-88
2022/01/31 00:42:34;;;;;;;;;;;-0.10;99.90;;;;;;4994118;28;19916;-86
2022/01/31 00:45:12;;;;;;;;;;;-0.10;99.90;;;;;;5006530;28;19928;-86
2022/01/31 00:47:40;;;;;;;;;;;0.00;99.90;;;;;;5023585;28;19925;-86
2022/01/31 00:50:11;;;;;;;;;;;0.00;99.90;;;;;;5016250;28;19921;-86
2022/01/31 00:52:37;;;;;;;;;;;0.10;99.90;;;;;;5011259;28;19979;-86
2022/01/31 00:55:06;;;;;;;;;;;0.10;99.90;;;;;;5024530;28;20027;-85
2022/01/31 00:57:32;;;;;;;;;;;0.10;99.90;;;;;;5029881;28;19917;-86
2022/01/31 00:59:57;;;;;;;;;;;0.10;99.90;;;;;;5012140;28;19917;-88
2022/01/31 01:02:24;;;;;;;;;;;0.10;99.90;;;;;;5010360;28;19920;-85
2022/01/31 01:04:50;;;;;;;;;;;0.10;99.90;;;;;;5014348;28;20527;-87
2022/01/31 01:07:16;;;;;;;;;;;0.10;99.90;;;;;;5018371;28;19921;-86
2022/01/31 01:09:42;;;;;;;;;;;0.20;99.90;;;;;;5029511;28;20712;-86
2022/01/31 01:12:09;;;;;;;;;;;0.10;99.90;;;;;;5025710;28;20277;-88
2022/01/31 01:14:35;;;;;;;;;;;0.10;99.90;;;;;;5012405;28;19957;-87
2022/01/31 01:17:01;;;;;;;;;;;0.20;99.90;;;;;;5019758;28;20169;-86
2022/01/31 01:19:26;;;;;;;;;;;0.20;99.90;;;;;;5002932;28;19913;-89
2022/01/31 01:21:52;;;;;;;;;;;0.10;99.90;;;;;;5021819;28;19917;-85
2022/01/31 01:24:17;;;;;;;;;;;0.10;99.90;;;;;;5022814;28;19920;-86
2022/01/31 01:26:43;;;;;;;;;;;0.20;99.90;;;;;;5022790;28;19925;-86
2022/01/31 01:29:09;;;;;;;;;;;0.30;99.90;;;;;;5020277;28;19933;-85
2022/01/31 01:31:34;;;;;;;;;;;0.40;99.90;;;;;;5020299;28;20272;-87
2022/01/31 01:34:00;;;;;;;;;;;0.30;99.90;;;;;;5015561;28;19926;-87
2022/01/31 01:36:26;;;;;;;;;;;0.30;99.90;;;;;;5022636;28;20372;-86
2022/01/31 01:38:51;;;;;;;;;;;0.30;99.90;;;;;;4982286;28;19997;-85
2022/01/31 01:41:17;;;;;;;;;;;0.30;99.90;;;;;;5028451;28;19959;-86
2022/01/31 01:43:42;;;;;;;;;;;0.30;99.90;;;;;;4993453;28;19909;-86
2022/01/31 01:46:08;;;;;;;;;;;0.20;99.90;;;;;;5023603;28;19979;-86
2022/01/31 01:48:34;;;;;;;;;;;0.30;99.90;;;;;;5015370;28;19925;-85
2022/01/31 01:50:59;;;;;;;;;;;0.30;99.90;;;;;;5021428;28;20004;-85
2022/01/31 01:53:25;;;;;;;;;;;0.40;99.90;;;;;;5010512;28;21728;-85
2022/01/31 01:55:52;;;;;;;;;;;0.40;99.90;;;;;;5024618;28;19913;-87
2022/01/31 01:58:22;;;;;;;;;;;0.30;99.90;;;;;;5028132;28;19921;-86
2022/01/31 02:00:58;;;;;;;;;;;0.30;99.90;;;;;;5028800;28;19936;-87
2022/01/31 02:03:24;;;;;;;;;;;0.30;99.90;;;;;;5004602;28;19987;-85
2022/01/31 02:05:50;;;;;;;;;;;0.30;99.90;;;;;;5028648;28;19941;-86
2022/01/31 02:08:19;;;;;;;;;;;0.40;99.90;;;;;;5010891;28;20349;-87
2022/01/31 02:10:45;;;;;;;;;;;0.40;99.90;;;;;;5010377;28;19909;-88
2022/01/31 02:13:11;;;;;;;;;;;0.60;99.90;;;;;;5002096;28;19914;-88
2022/01/31 02:15:38;;;;;;;;;;;0.60;99.90;;;;;;5010883;28;20373;-90
2022/01/31 02:18:04;;;;;;;;;;;0.60;99.90;;;;;;4993207;28;19913;-86
2022/01/31 02:20:30;;;;;;;;;;;0.60;99.90;;;;;;5010849;28;19914;-88
2022/01/31 02:22:55;;;;;;;;;;;0.60;99.90;;;;;;5009460;28;20388;-86
2022/01/31 02:25:21;;;;;;;;;;;0.60;99.90;;;;;;5010829;28;19952;-86
2022/01/31 02:27:46;;;;;;;;;;;0.60;99.90;;;;;;5006437;28;19913;-86
2022/01/31 02:30:13;;;;;;;;;;;0.60;99.90;;;;;;5016912;28;19917;-86
2022/01/31 02:32:41;;;;;;;;;;;0.60;99.90;;;;;;5029183;28;19914;-86
2022/01/31 02:35:07;;;;;;;;;;;0.70;99.90;;;;;;5029406;28;19925;-86
2022/01/31 02:37:33;;;;;;;;;;;0.60;99.90;;;;;;5027202;28;20008;-86
2022/01/31 02:39:59;;;;;;;;;;;0.70;99.90;;;;;;5029598;28;20052;-86
2022/01/31 02:42:28;;;;;;;;;;;0.70;99.90;;;;;;5026115;28;20051;-87
2022/01/31 02:44:53;;;;;;;;;;;0.70;99.90;;;;;;5015558;28;19917;-87
2022/01/31 02:47:28;;;;;;;;;;;0.70;99.90;;;;;;5008996;28;19964;-86
2022/01/31 02:50:02;;;;;;;;;;;0.60;99.90;;;;;;4999006;28;20323;-86
2022/01/31 02:52:31;;;;;;;;;;;0.50;99.90;;;;;;5022150;28;19963;-87
2022/01/31 02:54:57;;;;;;;;;;;0.60;99.90;;;;;;5017561;28;19913;-85
2022/01/31 02:57:22;;;;;;;;;;;0.60;99.90;;;;;;5011699;28;19909;-85
2022/01/31 02:59:48;;;;;;;;;;;0.50;99.90;;;;;;4996650;28;20335;-84
2022/01/31 03:02:14;;;;;;;;;;;0.50;99.90;;;;;;5009834;28;19921;-84
2022/01/31 03:04:40;;;;;;;;;;;0.50;99.90;;;;;;5015265;28;20399;-87
2022/01/31 03:07:06;;;;;;;;;;;0.40;99.90;;;;;;5004526;28;19986;-87
2022/01/31 03:09:31;;;;;;;;;;;0.30;99.90;;;;;;5031206;28;19917;-85
2022/01/31 03:11:57;;;;;;;;;;;0.20;99.90;;;;;;5019867;28;19925;-86
2022/01/31 03:14:25;;;;;;;;;;;0.20;99.90;;;;;;5024987;28;19940;-87
2022/01/31 03:16:51;;;;;;;;;;;0.20;99.90;;;;;;5029786;28;19920;-87
2022/01/31 03:19:17;;;;;;;;;;;0.20;99.90;;;;;;5015886;28;20272;-86
2022/01/31 03:21:43;;;;;;;;;;;0.20;99.90;;;;;;5010298;28;19921;-87
2022/01/31 03:24:09;;;;;;;;;;;0.20;99.90;;;;;;5018666;28;19921;-87
2022/01/31 03:26:35;;;;;;;;;;;0.30;99.90;;;;;;5013597;28;19914;-87
2022/01/31 03:29:01;;;;;;;;;;;0.20;99.90;;;;;;5010170;28;19913;-88
2022/01/31 03:31:26;;;;;;;;;;;0.20;99.90;;;;;;5007943;28;19914;-86
2022/01/31 03:33:53;;;;;;;;;;;0.20;99.90;;;;;;5012206;28;19929;-87
2022/01/31 03:36:19;;;;;;;;;;;0.20;99.90;;;;;;5022646;28;19918;-87
2022/01/31 03:38:45;;;;;;;;;;;0.20;99.90;;;;;;5013869;28;19910;-86
2022/01/31 03:41:14;;;;;;;;;;;0.20;99.90;;;;;;5012641;28;19917;-87
2022/01/31 03:43:40;;;;;;;;;;;0.20;99.90;;;;;;5026047;28;19909;-85
2022/01/31 03:46:05;;;;;;;;;;;0.20;99.90;;;;;;5025552;28;19920;-88
2022/01/31 03:48:31;;;;;;;;;;;0.20;99.90;;;;;;5013821;28;20162;-87
2022/01/31 03:50:57;;;;;;;;;;;0.10;99.90;;;;;;5031009;28;19917;-88
2022/01/31 03:53:23;;;;;;;;;;;0.10;99.90;;;;;;5019322;28;19913;-86
2022/01/31 03:55:48;;;;;;;;;;;0.10;99.90;;;;;;5027265;28;19935;-88
2022/01/31 03:58:14;;;;;;;;;;;0.10;99.90;;;;;;4999203;28;20007;-88
2022/01/31 04:00:40;;;;;;;;;;;0.10;99.90;;;;;;5006573;28;20056;-87
2022/01/31 04:03:05;;;;;;;;;;;0.10;99.90;;;;;;5012382;28;19910;-86
2022/01/31 04:05:31;;;;;;;;;;;0.10;99.90;;;;;;5020768;28;19914;-86
2022/01/31 04:08:00;;;;;;;;;;;0.20;99.90;;;;;;4995422;28;19937;-86
2022/01/31 04:10:26;;;;;;;;;;;0.30;99.90;;;;;;5009978;28;19909;-88
2022/01/31 04:12:52;;;;;;;;;;;0.40;99.90;;;;;;5001152;28;19991;-85
2022/01/31 04:15:17;;;;;;;;;;;0.50;99.90;;;;;;5027813;28;19913;-86
2022/01/31 04:17:43;;;;;;;;;;;0.60;99.90;;;;;;5007077;28;19922;-86
2022/01/31 04:20:09;;;;;;;;;;;0.60;99.90;;;;;;5018519;28;19933;-88
2022/01/31 04:22:40;;;;;;;;;;;0.70;99.90;;;;;;5012497;28;19924;-86
2022/01/31 04:25:17;;;;;;;;;;;0.80;99.90;;;;;;5012353;28;19942;-85
2022/01/31 04:27:54;;;;;;;;;;;0.80;99.90;;;;;;5022272;28;19922;-85
2022/01/31 04:30:20;;;;;;;;;;;0.80;99.90;;;;;;5001398;28;20642;-86
2022/01/31 04:32:45;;;;;;;;;;;0.80;99.90;;;;;;5015440;28;19913;-88
2022/01/31 04:35:11;;;;;;;;;;;0.80;99.90;;;;;;5025508;28;19929;-85
2022/01/31 04:37:36;;;;;;;;;;;0.80;99.90;;;;;;5023822;28;19976;-86
2022/01/31 04:40:02;;;;;;;;;;;0.80;99.90;;;;;;5020897;28;20028;-86
2022/01/31 04:42:28;;;;;;;;;;;0.90;99.90;;;;;;4997690;28;19913;-87
2022/01/31 04:44:57;;;;;;;;;;;1.00;99.90;;;;;;5031248;28;19917;-86
2022/01/31 04:47:23;;;;;;;;;;;1.00;99.90;;;;;;5014000;28;20016;-85
2022/01/31 04:49:51;;;;;;;;;;;0.90;99.90;;;;;;4997926;28;20320;-87
2022/01/31 04:52:17;;;;;;;;;;;0.90;99.90;;;;;;5017821;28;19917;-88
2022/01/31 04:54:42;;;;;;;;;;;0.80;99.90;;;;;;5015157;28;19918;-88
2022/01/31 04:57:09;;;;;;;;;;;0.80;99.90;;;;;;5010715;28;19917;-86
2022/01/31 04:59:40;;;;;;;;;;;0.90;99.90;;;;;;5012116;28;20685;-88
2022/01/31 05:02:06;;;;;;;;;;;0.90;99.90;;;;;;5011827;28;19914;-87
2022/01/31 05:04:31;;;;;;;;;;;0.90;99.90;;;;;;4994707;28;19920;-87
2022/01/31 05:06:58;;;;;;;;;;;1.00;99.90;;;;;;5022581;28;19917;-87
2022/01/31 05:09:23;;;;;;;;;;;1.00;99.90;;;;;;5006773;28;19922;-89
2022/01/31 05:11:49;;;;;;;;;;;1.00;99.90;;;;;;5012187;28;19976;-87
2022/01/31 05:14:16;;;;;;;;;;;1.00;99.90;;;;;;4994637;28;19913;-86
2022/01/31 05:16:41;;;;;;;;;;;1.00;99.90;;;;;;5028267;28;20019;-86
2022/01/31 05:19:07;;;;;;;;;;;1.00;99.90;;;;;;5019221;28;20016;-86
2022/01/31 05:21:32;;;;;;;;;;;1.00;99.90;;;;;;5012347;28;19921;-87
2022/01/31 05:23:58;;;;;;;;;;;1.00;99.90;;;;;;4994440;28;20356;-86
2022/01/31 05:26:23;;;;;;;;;;;1.00;99.90;;;;;;5011875;28;19909;-87
2022/01/31 05:28:49;;;;;;;;;;;1.00;99.90;;;;;;4994139;28;19913;-85
2022/01/31 05:31:15;;;;;;;;;;;1.10;99.90;;;;;;5010484;28;19913;-89
2022/01/31 05:33:40;;;;;;;;;;;1.00;99.90;;;;;;4996876;28;20008;-85
2022/01/31 05:36:07;;;;;;;;;;;1.00;99.90;;;;;;5000187;28;20337;-85
2022/01/31 05:38:38;;;;;;;;;;;1.00;99.90;;;;;;5015547;28;19921;-85
2022/01/31 05:41:07;;;;;;;;;;;1.00;99.90;;;;;;5011103;28;20262;-85
2022/01/31 05:43:35;;;;;;;;;;;1.10;99.90;;;;;;5015685;28;20308;-87
2022/01/31 05:46:01;;;;;;;;;;;1.10;99.90;;;;;;5014794;28;19913;-83
2022/01/31 05:48:26;;;;;;;;;;;1.10;99.90;;;;;;5010891;28;20335;-86
2022/01/31 05:50:53;;;;;;;;;;;1.10;99.90;;;;;;4978868;28;19926;-86
2022/01/31 05:53:18;;;;;;;;;;;1.10;99.90;;;;;;5013828;28;19917;-86
2022/01/31 05:55:44;;;;;;;;;;;1.10;99.90;;;;;;5019027;28;20008;-86
2022/01/31 05:58:12;;;;;;;;;;;1.10;99.90;;;;;;4998256;28;20007;-87
2022/01/31 06:00:38;;;;;;;;;;;1.10;99.90;;;;;;5001424;28;19927;-86
2022/01/31 06:03:06;;;;;;;;;;;1.10;99.90;;;;;;5019741;28;19921;-86
2022/01/31 06:05:32;;;;;;;;;;;1.10;99.90;;;;;;5015011;28;19921;-85
2022/01/31 06:07:57;;;;;;;;;;;1.20;99.90;;;;;;5019634;28;19928;-86
2022/01/31 06:10:26;;;;;;;;;;;1.20;99.90;;;;;;5012143;28;19957;-85
2022/01/31 06:12:52;;;;;;;;;;;1.20;99.90;;;;;;5009795;28;19953;-86
2022/01/31 06:15:19;;;;;;;;;;;1.30;99.90;;;;;;5010544;28;19918;-87
2022/01/31 06:17:48;;;;;;;;;;;1.20;99.90;;;;;;5013215;28;19917;-87
2022/01/31 06:20:13;;;;;;;;;;;1.20;99.90;;;;;;5010931;28;19926;-87
2022/01/31 06:22:51;;;;;;;;;;;1.20;99.90;;;;;;4984598;28;20414;-86
2022/01/31 06:25:17;;;;;;;;;;;1.30;99.90;;;;;;5015690;28;20000;-85
2022/01/31 06:27:43;;;;;;;;;;;1.30;99.90;;;;;;5022385;28;19913;-86
2022/01/31 06:30:09;;;;;;;;;;;1.30;99.90;;;;;;5018548;28;19921;-86
2022/01/31 06:32:35;;;;;;;;;;;1.40;99.90;;;;;;5020575;28;19927;-85
2022/01/31 06:35:01;;;;;;;;;;;1.40;99.90;;;;;;5014979;28;19929;-86
2022/01/31 06:37:26;;;;;;;;;;;1.40;99.90;;;;;;5019598;28;20276;-87
2022/01/31 06:39:52;;;;;;;;;;;1.50;99.90;;;;;;5021507;28;19986;-86
2022/01/31 06:42:17;;;;;;;;;;;1.50;99.90;;;;;;5024749;28;20284;-87
2022/01/31 06:44:43;;;;;;;;;;;1.60;99.90;;;;;;4998475;28;19940;-87
2022/01/31 06:47:09;;;;;;;;;;;1.70;99.90;;;;;;5017727;28;19917;-86
2022/01/31 06:49:37;;;;;;;;;;;1.70;99.90;;;;;;5018179;28;20341;-87
2022/01/31 06:52:06;;;;;;;;;;;1.80;99.90;;;;;;5020751;28;20307;-85
2022/01/31 06:54:32;;;;;;;;;;;1.80;99.90;;;;;;5015965;28;20487;-86
2022/01/31 06:56:58;;;;;;;;;;;1.90;99.90;;;;;;4998926;28;19935;-85
2022/01/31 06:59:23;;;;;;;;;;;2.00;99.90;;;;;;4990026;28;19917;-84
2022/01/31 07:01:49;;;;;;;;;;;2.00;99.90;;;;;;5026496;28;20897;-87
2022/01/31 07:04:15;;;;;;;;;;;2.10;99.90;;;;;;4995906;28;19917;-87
2022/01/31 07:06:40;;;;;;;;;;;2.10;99.90;;;;;;5003619;28;19925;-90
2022/01/31 07:09:06;;;;;;;;;;;2.10;99.90;;;;;;5018209;28;20344;-87
2022/01/31 07:11:36;;;;;;;;;;;2.20;99.90;;;;;;5002911;28;20661;-85
2022/01/31 07:14:06;;;;;;;;;;;2.30;99.90;;;;;;5020010;28;19929;-85
2022/01/31 07:16:32;;;;;;;;;;;2.30;99.90;;;;;;5011916;28;19923;-85
2022/01/31 07:19:04;;;;;;;;;;;2.30;99.90;;;;;;5020233;28;19921;-86
2022/01/31 07:21:36;;;;;;;;;;;2.40;99.90;;;;;;5022124;28;19917;-88
2022/01/31 07:24:06;;;;;;;;;;;2.50;99.90;;;;;;5013911;28;20304;-85
2022/01/31 07:26:31;;;;;;;;;;;2.50;99.90;;;;;;5006580;28;20016;-87
2022/01/31 07:28:57;;;;;;;;;;;2.40;99.90;;;;;;5018982;28;20078;-89
2022/01/31 07:31:23;;;;;;;;;;;2.40;99.90;;;;;;5004513;28;20625;-87
2022/01/31 07:33:51;;;;;;;;;;;2.50;99.90;;;;;;5021917;28;19922;-87
2022/01/31 07:36:17;;;;;;;;;;;2.50;99.90;;;;;;5006610;28;20432;-87
2022/01/31 07:38:42;;;;;;;;;;;2.60;99.90;;;;;;5020885;28;20052;-86
2022/01/31 07:41:12;;;;;;;;;;;2.60;99.90;;;;;;5003686;28;19917;-87
2022/01/31 07:43:38;;;;;;;;;;;2.60;99.90;;;;;;5021279;28;19921;-86
2022/01/31 07:46:04;;;;;;;;;;;2.50;99.90;;;;;;5023535;28;19968;-86
2022/01/31 07:48:31;;;;;;;;;;;2.30;99.90;;;;;;5028158;28;19921;-88
2022/01/31 07:50:57;;;;;;;;;;;2.10;99.90;;;;;;5004931;28;20383;-86
2022/01/31 07:53:22;;;;;;;;;;;2.10;99.90;;;;;;5018951;28;19921;-88
2022/01/31 07:55:51;;;;;;;;;;;2.10;99.90;;;;;;4999004;28;19917;-87
2022/01/31 07:58:18;;;;;;;;;;;2.00;99.90;;;;;;5020140;28;19918;-85
2022/01/31 08:00:45;;;;;;;;;;;1.80;99.90;;;;;;4994934;28;20361;-86
2022/01/31 08:03:10;;;;;;;;;;;1.80;99.90;;;;;;5012902;28;19909;-86
2022/01/31 08:05:36;;;;;;;;;;;1.80;99.90;;;;;;5024440;28;19968;-86
2022/01/31 08:08:01;;;;;;;;;;;1.80;99.90;;;;;;5017914;28;19932;-86
2022/01/31 08:10:27;;;;;;;;;;;1.80;99.90;;;;;;5012839;28;19918;-86
2022/01/31 08:12:55;;;;;;;;;;;1.80;99.90;;;;;;5013077;28;19918;-85
2022/01/31 08:15:26;;;;;;;;;;;1.90;99.90;;;;;;5002625;28;20305;-85
2022/01/31 08:17:54;;;;;;;;;;;1.90;99.90;;;;;;5000756;28;19918;-86
2022/01/31 08:20:20;;;;;;;;;;;2.00;99.90;;;;;;5008197;28;19975;-84
2022/01/31 08:22:45;;;;;;;;;;;2.00;99.90;;;;;;5018340;28;19956;-86
2022/01/31 08:25:14;;;;;;;;;;;2.00;99.90;;;;;;5020490;28;19913;-86
2022/01/31 08:27:43;;;;;;;;;;;2.00;99.90;;;;;;5020604;28;20023;-86
2022/01/31 08:30:14;;;;;;;;;;;1.90;99.90;;;;;;5029903;28;19956;-86
2022/01/31 08:32:59;;;;;;;;;;;1.90;99.90;;;;;;5012058;28;20369;-87
2022/01/31 08:38:09;;;;;;;;;;;1.90;99.90;;;;;;5007349;28;19936;-85
2022/01/31 08:40:34;;;;;;;;;;;1.90;99.90;;;;;;5015013;28;19918;-87
2022/01/31 08:43:00;;;;;;;;;;;1.90;99.90;;;;;;5012145;28;19915;-85
2022/01/31 08:45:27;;;;;;;;;;;1.90;99.90;;;;;;5016609;28;19987;-85
2022/01/31 08:48:02;;;;;;;;;;;1.90;99.90;;;;;;5014111;28;19918;-87
2022/01/31 08:50:28;;;;;;;;;;;1.80;99.90;;;;;;5026688;28;19918;-87
2022/01/31 08:52:53;;;;;;;;;;;1.80;99.90;;;;;;4989327;28;19937;-89
2022/01/31 08:55:21;;;;;;;;;;;1.80;99.90;;;;;;4994535;28;20028;-86
2022/01/31 08:57:53;;;;;;;;;;;1.70;99.90;;;;;;5032054;28;19909;-89
2022/01/31 09:00:19;;;;;;;;;;;1.70;99.90;;;;;;5015800;28;19928;-83
2022/01/31 09:03:00;;;;;;;;;;;1.70;99.90;;;;;;5002742;28;19910;-87
2022/01/31 09:05:25;;;;;;;;;;;1.70;99.90;;;;;;5012119;28;19920;-86
2022/01/31 09:07:51;;;;;;;;;;;1.60;99.90;;;;;;5001218;28;20000;-88
2022/01/31 09:10:18;;;;;;;;;;;1.60;99.90;;;;;;5018175;28;19918;-86
2022/01/31 09:12:43;;;;;;;;;;;1.60;99.90;;;;;;5013375;28;19915;-86
2022/01/31 09:15:12;;;;;;;;;;;1.60;99.90;;;;;;5011682;28;19996;-86
2022/01/31 09:17:38;;;;;;;;;;;1.60;99.90;;;;;;4993941;28;20396;-88
2022/01/31 09:20:04;;;;;;;;;;;1.60;99.90;;;;;;4993483;28;19953;-87
2022/01/31 09:22:30;;;;;;;;;;;1.50;99.90;;;;;;5006263;28;20384;-84
2022/01/31 09:24:55;;;;;;;;;;;1.40;99.90;;;;;;5010485;28;19917;-86
2022/01/31 09:27:21;;;;;;;;;;;1.40;99.90;;;;;;5010497;28;20269;-84
2022/01/31 09:29:47;;;;;;;;;;;1.40;99.90;;;;;;5012338;28;19918;-86
2022/01/31 09:32:13;;;;;;;;;;;1.30;99.90;;;;;;5010782;28;20372;-85
2022/01/31 09:34:40;;;;;;;;;;;1.30;99.90;;;;;;5012306;28;20397;-87
2022/01/31 09:37:05;;;;;;;;;;;1.30;99.90;;;;;;5020694;28;20004;-85
2022/01/31 09:39:35;;;;;;;;;;;1.30;99.90;;;;;;5010720;28;19956;-87
2022/01/31 09:42:01;;;;;;;;;;;1.30;99.90;;;;;;5011895;28;19959;-87
2022/01/31 09:45:03;;;;;;;;;;;1.20;99.90;;;;;;4996783;28;19929;-89
2022/01/31 09:47:24;;;;;;;;;;;1.20;99.90;;;;;;5005953;28;19928;-87
2022/01/31 09:49:51;;;;;;;;;;;1.20;99.90;;;;;;5014205;28;19922;-86
2022/01/31 09:52:17;;;;;;;;;;;1.30;99.90;;;;;;5027128;28;19999;-85
2022/01/31 09:54:43;;;;;;;;;;;1.40;99.90;;;;;;5027165;28;19987;-89
2022/01/31 09:57:09;;;;;;;;;;;1.60;99.90;;;;;;5029823;28;20020;-87
2022/01/31 09:59:34;;;;;;;;;;;1.70;99.90;;;;;;5000970;28;19996;-86
2022/01/31 10:02:07;;;;;;;;;;;1.60;99.90;;;;;;5014196;28;19917;-87
2022/01/31 10:04:36;;;;;;;;;;;1.70;99.90;;;;;;5019741;28;20282;-84
2022/01/31 10:07:02;;;;;;;;;;;1.70;99.90;;;;;;4979716;28;19940;-86
2022/01/31 10:09:32;;;;;;;;;;;1.70;99.90;;;;;;5022467;28;19924;-86
2022/01/31 10:12:11;;;;;;;;;;;1.70;99.90;;;;;;5021936;28;19952;-85
2022/01/31 10:17:26;;;;;;;;;;;2.10;99.90;;;;;;5011518;28;19983;-85
2022/01/31 10:19:53;;;;;;;;;;;2.30;99.90;;;;;;5004067;28;19924;-85
2022/01/31 10:22:19;;;;;;;;;;;2.10;99.90;;;;;;5017326;28;20363;-84
2022/01/31 10:24:46;;;;;;;;;;;2.00;99.90;;;;;;5022460;28;19913;-86
2022/01/31 10:27:16;;;;;;;;;;;1.90;99.90;;;;;;5001830;28;19967;-87
2022/01/31 10:29:43;;;;;;;;;;;1.80;99.90;;;;;;5006156;28;19933;-86
2022/01/31 10:32:10;;;;;;;;;;;1.70;99.90;;;;;;5021109;28;19918;-87
2022/01/31 10:34:44;;;;;;;;;;;1.80;99.90;;;;;;5017465;28;19926;-88
2022/01/31 10:37:12;;;;;;;;;;;1.90;99.90;;;;;;5015270;28;19921;-85
2022/01/31 10:53:49;;;;;;;;;;;2.20;99.90;;;;;;5003126;28;19921;-86
2022/01/31 10:56:14;;;;;;;;;;;2.40;99.90;;;;;;5018585;28;19982;-86
2022/01/31 10:58:57;;;;;;;;;;;2.60;99.90;;;;;;5009146;28;19909;-86
2022/01/31 11:01:22;;;;;;;;;;;2.60;99.90;;;;;;5013929;28;19929;-85
2022/01/31 11:03:48;;;;;;;;;;;2.90;99.90;;;;;;5017600;28;19917;-87
2022/01/31 11:06:17;;;;;;;;;;;3.00;99.90;;;;;;5003509;28;19917;-87
2022/01/31 11:08:45;;;;;;;;;;;3.40;99.90;;;;;;4995010;28;19964;-85
2022/01/31 11:11:11;;;;;;;;;;;3.50;99.90;;;;;;5000310;28;19914;-87
2022/01/31 11:13:40;;;;;;;;;;;3.70;99.90;;;;;;5017680;28;20368;-86
2022/01/31 11:16:06;;;;;;;;;;;3.80;99.90;;;;;;5027487;28;19920;-86
2022/01/31 11:18:35;;;;;;;;;;;3.80;99.90;;;;;;5023038;28;19914;-85
2022/01/31 11:21:02;;;;;;;;;;;3.80;99.90;;;;;;5020860;28;19917;-85
2022/01/31 11:23:29;;;;;;;;;;;4.00;99.90;;;;;;5019374;28;19959;-87
2022/01/31 11:25:59;;;;;;;;;;;3.50;99.90;;;;;;5015568;28;20001;-86
2022/01/31 11:28:28;;;;;;;;;;;3.40;99.90;;;;;;5014631;28;19924;-85
2022/01/31 11:30:54;;;;;;;;;;;3.20;99.90;;;;;;4998506;28;19972;-85
2022/01/31 11:33:20;;;;;;;;;;;3.30;99.90;;;;;;5017017;28;20325;-85
2022/01/31 11:35:47;;;;;;;;;;;3.20;99.90;;;;;;5017803;28;19924;-85
2022/01/31 11:38:13;;;;;;;;;;;3.20;99.90;;;;;;5017285;28;19915;-85
2022/01/31 11:40:39;;;;;;;;;;;3.00;99.90;;;;;;5016678;28;19988;-84
2022/01/31 11:43:04;;;;;;;;;;;3.00;99.90;;;;;;5020630;28;19953;-84
2022/01/31 11:45:32;;;;;;;;;;;2.90;99.90;;;;;;5020618;28;19919;-85
2022/01/31 11:47:58;;;;;;;;;;;3.00;99.90;;;;;;5020176;28;19928;-84
2022/01/31 11:50:24;;;;;;;;;;;3.00;99.90;;;;;;5018748;28;19917;-82
2022/01/31 11:52:58;;;;;;;;;;;3.00;99.90;;;;;;5003496;28;20012;-83
2022/01/31 11:55:25;;;;;;;;;;;3.00;99.90;;;;;;5013147;28;19921;-83
2022/01/31 11:57:54;;;;;;;;;;;3.10;99.90;;;;;;5021011;28;20415;-82
2022/01/31 12:00:21;;;;;;;;;;;3.10;99.90;;;;;;5001808;28;19925;-86
2022/01/31 12:02:48;;;;;;;;;;;3.10;99.90;;;;;;5016749;28;20399;-86
2022/01/31 12:05:19;;;;;;;;;;;3.20;99.90;;;;;;5009651;28;19917;-88
2022/01/31 12:07:58;;;;;;;;;;;3.10;99.90;;;;;;5022438;28;19913;-83
2022/01/31 12:10:33;;;;;;;;;;;3.30;99.90;;;;;;5016223;28;19917;-80
2022/01/31 12:13:11;;;;;;;;;;;3.40;99.90;;;;;;5013520;28;19967;-79
2022/01/31 12:23:58;;;;;;;;;;;4.20;99.90;;;;;;5023706;28;19955;-78
2022/01/31 12:26:33;;;;;;;;;;;4.00;99.90;;;;;;5001935;28;19913;-80
2022/01/31 12:29:00;;;;;;;;;;;4.20;99.90;;;;;;5019328;28;19917;-79
2022/01/31 12:31:45;;;;;;;;;;;4.20;99.90;;;;;;5019723;28;19924;-80
2022/01/31 12:34:17;;;;;;;;;;;4.20;99.90;;;;;;5004419;28;19925;-83
2022/01/31 12:36:42;;;;;;;;;;;4.00;99.90;;;;;;5022799;28;20362;-83
2022/01/31 12:39:27;;;;;;;;;;;3.90;99.90;;;;;;5029708;28;19917;-83
2022/01/31 12:42:15;;;;;;;;;;;3.90;99.90;;;;;;4994759;28;19913;-84
2022/01/31 12:44:42;;;;;;;;;;;4.00;99.90;;;;;;5012706;28;19914;-85
2022/01/31 12:47:15;;;;;;;;;;;3.80;99.90;;;;;;5025236;28;19916;-84
2022/01/31 12:49:41;;;;;;;;;;;3.70;99.90;;;;;;5001351;28;19928;-83
2022/01/31 12:52:08;;;;;;;;;;;3.70;99.90;;;;;;5019581;28;19926;-86
2022/01/31 12:54:36;;;;;;;;;;;3.60;99.90;;;;;;5018708;28;19913;-84
2022/01/31 12:57:06;;;;;;;;;;;3.60;99.90;;;;;;5014224;28;19922;-83
2022/01/31 12:59:32;;;;;;;;;;;3.50;99.90;;;;;;5023608;28;20348;-84
2022/01/31 13:01:58;;;;;;;;;;;3.50;99.90;;;;;;5025253;28;19972;-83
2022/01/31 13:04:25;;;;;;;;;;;3.60;99.90;;;;;;5020761;28;20281;-84
2022/01/31 13:06:52;;;;;;;;;;;3.70;99.90;;;;;;5020232;28;19984;-84
2022/01/31 13:09:28;;;;;;;;;;;3.60;99.90;;;;;;5021151;28;20016;-84
2022/01/31 13:11:56;;;;;;;;;;;3.50;98.60;;;;;;5014011;28;19961;-85
2022/01/31 13:14:26;;;;;;;;;;;3.40;99.90;;;;;;5019804;28;19917;-84
2022/01/31 13:17:15;;;;;;;;;;;3.20;97.10;;;;;;5000193;28;19921;-85
2022/01/31 13:19:42;;;;;;;;;;;3.40;99.40;;;;;;5008438;28;20076;-85
2022/01/31 13:22:11;;;;;;;;;;;3.30;99.50;;;;;;4994014;28;19913;-85
2022/01/31 13:24:39;;;;;;;;;;;3.20;98.30;;;;;;5015418;28;19913;-85
2022/01/31 13:27:09;;;;;;;;;;;3.30;99.70;;;;;;5014297;28;19917;-86
2022/01/31 13:29:39;;;;;;;;;;;3.30;99.60;;;;;;5008135;28;20399;-83
2022/01/31 13:32:14;;;;;;;;;;;3.20;97.30;;;;;;5011669;28;19921;-84
2022/01/31 13:34:41;;;;;;;;;;;3.20;98.40;;;;;;4990659;28;19922;-85
2022/01/31 13:37:25;;;;;;;;;;;3.10;99.00;;;;;;4986208;28;19922;-85
2022/01/31 13:39:54;;;;;;;;;;;3.10;99.80;;;;;;4960977;28;19915;-86
2022/01/31 13:42:25;;;;;;;;;;;3.00;96.40;;;;;;4953658;28;19919;-86
2022/01/31 13:44:54;;;;;;;;;;;2.90;99.90;;;;;;4977165;28;20065;-85
2022/01/31 13:47:40;;;;;;;;;;;3.00;98.80;;;;;;4980844;28;19967;-84
2022/01/31 13:50:16;;;;;;;;;;;3.00;99.30;;;;;;4990493;28;19925;-85
2022/01/31 13:52:51;;;;;;;;;;;2.90;99.90;;;;;;4991887;28;19917;-87
2022/01/31 13:55:17;;;;;;;;;;;2.80;98.90;;;;;;4971192;28;19984;-87
2022/01/31 13:57:43;;;;;;;;;;;2.80;99.30;;;;;;4958557;28;19922;-85
2022/01/31 14:00:12;;;;;;;;;;;2.90;98.90;;;;;;4972399;28;20488;-87
2022/01/31 14:02:39;;;;;;;;;;;2.90;99.60;;;;;;4978538;28;19948;-86
2022/01/31 14:05:18;;;;;;;;;;;3.00;99.90;;;;;;4977392;28;20397;-86
2022/01/31 14:07:43;;;;;;;;;;;3.00;99.40;;;;;;4975188;28;20020;-86
2022/01/31 14:10:25;;;;;;;;;;;2.90;99.90;;;;;;4971732;28;20060;-84
2022/01/31 14:13:07;;;;;;;;;;;3.00;99.90;;;;;;4982469;28;20369;-88
2022/01/31 14:15:58;;;;;;;;;;;2.90;99.90;;;;;;4981622;28;20009;-84
2022/01/31 14:18:25;;;;;;;;;;;2.80;99.90;;;;;;4970139;28;19918;-85
2022/01/31 14:20:52;;;;;;;;;;;2.80;99.90;;;;;;4978248;28;20113;-85
2022/01/31 14:23:18;;;;;;;;;;;2.90;99.90;;;;;;4984133;28;19922;-87
2022/01/31 14:25:45;;;;;;;;;;;3.00;99.90;;;;;;4970020;28;19989;-83
2022/01/31 14:28:11;;;;;;;;;;;2.90;99.90;;;;;;4980280;28;19917;-85
2022/01/31 14:30:52;;;;;;;;;;;2.90;99.90;;;;;;4986010;28;19977;-86
2022/01/31 14:33:19;;;;;;;;;;;2.90;99.90;;;;;;4967018;28;19930;-85
2022/01/31 14:35:47;;;;;;;;;;;2.90;99.90;;;;;;5025490;28;19991;-86
2022/01/31 14:38:19;;;;;;;;;;;3.00;99.90;;;;;;4996886;28;19980;-85
2022/01/31 14:47:15;;;;;;;;;;;3.20;99.90;;;;;;5029810;28;19948;-86
2022/01/31 14:48:57;;;;;;;;;;;2.90;99.90;;;;;;5013498;28;19927;-84
2022/01/31 14:51:27;;;;;;;;;;;2.80;99.90;;;;;;5025998;28;20039;-85
2022/01/31 14:53:54;;;;;;;;;;;2.80;99.90;;;;;;4994984;28;19960;-83
2022/01/31 14:56:19;;;;;;;;;;;2.70;99.90;;;;;;5016622;28;19916;-84
2022/01/31 14:58:45;;;;;;;;;;;2.60;99.90;;;;;;5010449;28;19913;-84
2022/01/31 15:01:10;;;;;;;;;;;2.50;99.90;;;;;;4997395;28;19918;-84
2022/01/31 15:03:37;;;;;;;;;;;2.50;99.90;;;;;;5010584;28;20020;-82
2022/01/31 15:06:03;;;;;;;;;;;2.40;99.90;;;;;;5010458;28;19925;-87